Time;durP1;ratioP1;P1;durP2;ratioP2;P2;SDS_P1;SDS_P2;PMS_P1;PMS_P2;Temp;Humidity;BMP_temperature;BMP_pressure;BME280_temperature;BME280_humidity;BME280_pressure;Samples;Min_cycle;Max_cycle;Signal;HPM_P1;HPM_P2
2022/02/05 00:05:46;;;;;;;85.15;43.53;;;;;;;;;;5018139;28;20088;-46
2022/02/05 00:13:45;;;;;;;157.85;87.82;;;;;;;;;;5017844;28;20036;-46
2022/02/05 00:43:11;;;;;;;139.27;68.75;;;;;;;;;;5052784;28;20370;-50
2022/02/05 00:45:44;;;;;;;141.65;72.93;;;;;;;;;;5052719;28;20053;-51
2022/02/05 00:48:12;;;;;;;141.93;71.95;;;;;;;;;;5052673;28;20040;-47
2022/02/05 00:50:41;;;;;;;135.95;67.78;;;;;;;;;;5052744;28;20052;-48
2022/02/05 00:55:41;;;;;;;168.57;82.57;;;;;;;;;;5052452;28;20055;-48
2022/02/05 00:58:07;;;;;;;154.75;67.22;;;;;;;;;;5052398;28;20037;-49
2022/02/05 01:00:34;;;;;;;148.43;70.90;;;;;;;;;;5052660;28;20021;-48
2022/02/05 01:03:01;;;;;;;145.40;73.53;;;;;;;;;;5052501;28;20484;-50
2022/02/05 01:05:27;;;;;;;145.75;69.72;;;;;;;;;;5052604;28;20031;-49
2022/02/05 01:07:59;;;;;;;135.15;66.72;;;;;;;;;;5052411;28;20049;-50
2022/02/05 01:10:26;;;;;;;131.75;64.65;;;;;;;;;;5052522;28;20025;-50
2022/02/05 01:12:57;;;;;;;141.13;65.88;;;;;;;;;;5052609;28;20052;-50
2022/02/05 01:15:29;;;;;;;161.18;75.40;;;;;;;;;;5055871;28;20072;-48
2022/02/05 01:18:02;;;;;;;;;;;;;;;;;;5055339;28;20507;-49
2022/02/05 01:23:16;;;;;;;180.75;78.82;;;;;;;;;;5056541;28;20129;-47
2022/02/05 01:25:50;;;;;;;175.82;81.15;;;;;;;;;;5056218;28;20044;-49
2022/02/05 01:28:21;;;;;;;165.88;78.82;;;;;;;;;;5055831;28;20044;-49
2022/02/05 01:30:52;;;;;;;169.27;78.20;;;;;;;;;;5055971;28;20035;-49
2022/02/05 01:53:04;;;;;;;191.98;90.47;;;;;;;;;;5055679;28;20040;-48
2022/02/05 02:05:54;;;;;;;168.68;79.22;;;;;;;;;;5055504;28;20036;-47
2022/02/05 02:14:14;;;;;;;157.68;74.03;;;;;;;;;;5055415;28;20067;-49
2022/02/05 02:19:50;;;;;;;163.35;75.20;;;;;;;;;;5055211;28;20473;-49
2022/02/05 02:22:14;;;;;;;148.93;71.97;;;;;;;;;;5054927;28;20393;-50
2022/02/05 02:27:48;;;;;;;136.40;66.22;;;;;;;;;;5054894;28;20028;-49
2022/02/05 02:30:16;;;;;;;144.15;70.43;;;;;;;;;;5054638;28;20053;-49
2022/02/05 02:32:47;;;;;;;183.60;98.05;;;;;;;;;;5055023;28;20104;-50
2022/02/05 02:35:19;;;;;;;191.85;106.68;;;;;;;;;;5054847;28;20164;-49
2022/02/05 02:37:51;;;;;;;158.93;80.43;;;;;;;;;;5054863;28;20039;-49
2022/02/05 02:42:54;;;;;;;168.98;79.45;;;;;;;;;;5054725;28;20032;-48
2022/02/05 02:45:20;;;;;;;167.75;90.07;;;;;;;;;;5055007;28;20036;-48
2022/02/05 02:47:48;;;;;;;164.88;93.05;;;;;;;;;;5054896;28;20108;-49
2022/02/05 02:58:24;;;;;;;150.13;76.43;;;;;;;;;;5054623;28;20496;-48
2022/02/05 03:00:55;;;;;;;143.80;75.25;;;;;;;;;;5054282;28;20104;-49
2022/02/05 03:03:21;;;;;;;150.38;79.50;;;;;;;;;;5054355;28;20017;-48
2022/02/05 03:05:47;;;;;;;157.02;77.47;;;;;;;;;;5054378;28;20025;-50
2022/02/05 03:08:13;;;;;;;148.48;73.28;;;;;;;;;;5054510;28;20392;-49
2022/02/05 03:10:39;;;;;;;132.50;66.03;;;;;;;;;;5054417;28;20032;-48
2022/02/05 03:13:05;;;;;;;106.45;56.85;;;;;;;;;;5054330;28;20024;-50
2022/02/05 03:15:37;;;;;;;110.82;56.67;;;;;;;;;;5054041;28;20441;-49
2022/02/05 03:18:06;;;;;;;;;;;;;;;;;;5054442;28;20029;-49
2022/02/05 03:20:32;;;;;;;108.63;54.38;;;;;;;;;;5054143;28;20329;-49
2022/02/05 03:23:00;;;;;;;98.15;49.63;;;;;;;;;;5053943;28;20033;-49
2022/02/05 03:25:27;;;;;;;92.95;48.10;;;;;;;;;;5053939;28;20053;-48
2022/02/05 03:27:53;;;;;;;96.13;49.17;;;;;;;;;;5053759;28;20444;-47
2022/02/05 03:30:21;;;;;;;86.45;44.80;;;;;;;;;;5053765;28;20035;-49
2022/02/05 03:32:47;;;;;;;88.03;47.13;;;;;;;;;;5053766;28;20029;-48
2022/02/05 03:35:13;;;;;;;75.75;42.30;;;;;;;;;;5053987;28;20372;-48
2022/02/05 03:37:40;;;;;;;82.57;43.33;;;;;;;;;;5053063;28;20112;-47
2022/02/05 03:40:06;;;;;;;79.65;40.78;;;;;;;;;;5053669;28;20025;-49
2022/02/05 03:42:32;;;;;;;80.22;42.55;;;;;;;;;;5053714;28;20370;-49
2022/02/05 03:44:58;;;;;;;81.15;44.75;;;;;;;;;;5053679;28;20495;-49
2022/02/05 03:47:29;;;;;;;85.93;46.65;;;;;;;;;;5053538;28;20109;-50
2022/02/05 03:49:56;;;;;;;74.85;42.78;;;;;;;;;;5053706;28;20424;-48
2022/02/05 03:52:22;;;;;;;76.97;41.38;;;;;;;;;;5053641;28;20017;-50
2022/02/05 03:54:48;;;;;;;73.78;41.28;;;;;;;;;;5053365;28;20031;-49
2022/02/05 03:57:14;;;;;;;78.60;43.88;;;;;;;;;;5053211;28;20033;-48
2022/02/05 03:59:42;;;;;;;76.53;42.05;;;;;;;;;;5053289;28;20104;-46
2022/02/05 04:02:09;;;;;;;81.72;44.10;;;;;;;;;;5053643;28;20033;-49
2022/02/05 04:04:39;;;;;;;71.10;39.40;;;;;;;;;;5053349;28;20032;-49
2022/02/05 04:07:08;;;;;;;67.30;37.70;;;;;;;;;;5053422;28;20399;-47
2022/02/05 04:09:41;;;;;;;63.60;37.15;;;;;;;;;;5053171;28;20067;-49
2022/02/05 04:17:36;;;;;;;68.57;36.72;;;;;;;;;;5053022;28;20052;-48
2022/02/05 04:20:03;;;;;;;63.80;35.53;;;;;;;;;;5053109;28;20074;-49
2022/02/05 04:22:29;;;;;;;68.38;35.25;;;;;;;;;;5053134;28;20065;-48
2022/02/05 04:24:55;;;;;;;69.53;36.85;;;;;;;;;;5053146;28;20024;-50
2022/02/05 04:27:21;;;;;;;64.95;34.63;;;;;;;;;;5052844;28;20056;-49
2022/02/05 04:29:48;;;;;;;67.03;36.92;;;;;;;;;;5052819;28;20404;-46
2022/02/05 04:32:14;;;;;;;68.25;36.20;;;;;;;;;;5053115;28;20473;-48
2022/02/05 04:34:41;;;;;;;70.75;38.45;;;;;;;;;;5052814;28;20469;-49
2022/02/05 04:37:07;;;;;;;64.53;37.55;;;;;;;;;;5052818;28;20037;-46
2022/02/05 04:39:36;;;;;;;67.05;38.15;;;;;;;;;;5052992;28;20025;-48
2022/02/05 04:42:13;;;;;;;75.45;40.00;;;;;;;;;;5052755;28;20075;-47
2022/02/05 04:53:05;;;;;;;83.53;44.13;;;;;;;;;;5056797;28;20044;-49
2022/02/05 05:03:37;;;;;;;100.18;50.53;;;;;;;;;;5056671;28;20444;-48
2022/02/05 05:11:22;;;;;;;88.15;47.55;;;;;;;;;;5056509;28;20033;-48
2022/02/05 05:21:24;;;;;;;101.60;49.80;;;;;;;;;;5056610;28;20039;-49
2022/02/05 05:23:50;;;;;;;96.57;50.33;;;;;;;;;;5056255;28;20469;-49
2022/02/05 05:26:19;;;;;;;104.55;52.78;;;;;;;;;;5056193;28;20037;-48
2022/02/05 05:28:45;;;;;;;98.78;50.58;;;;;;;;;;5055860;28;20053;-48
2022/02/05 05:31:13;;;;;;;86.03;48.70;;;;;;;;;;5055566;28;20488;-47
2022/02/05 05:33:39;;;;;;;93.07;47.65;;;;;;;;;;5055501;28;20058;-48
2022/02/05 05:36:05;;;;;;;100.47;50.17;;;;;;;;;;5055471;28;20028;-48
2022/02/05 05:38:31;;;;;;;95.70;50.85;;;;;;;;;;5055407;28;20033;-51
2022/02/05 05:40:57;;;;;;;98.15;51.92;;;;;;;;;;5055273;28;20103;-47
2022/02/05 05:46:15;;;;;;;96.75;49.53;;;;;;;;;;5054587;28;20025;-47
2022/02/05 05:48:57;;;;;;;110.05;56.92;;;;;;;;;;5053274;28;20029;-48
2022/02/05 05:51:24;;;;;;;97.93;51.30;;;;;;;;;;5055640;28;20116;-49
2022/02/05 05:53:50;;;;;;;98.05;50.88;;;;;;;;;;5055423;28;20040;-50
2022/02/05 05:56:18;;;;;;;163.02;91.20;;;;;;;;;;5055521;28;20033;-47
2022/02/05 05:58:44;;;;;;;187.80;104.85;;;;;;;;;;5055419;28;20087;-49
2022/02/05 06:01:10;;;;;;;220.55;119.28;;;;;;;;;;5054916;28;20029;-49
2022/02/05 06:03:38;;;;;;;205.70;111.93;;;;;;;;;;5055638;28;20024;-49
2022/02/05 06:06:04;;;;;;;197.20;107.07;;;;;;;;;;5055422;28;20104;-48
2022/02/05 06:08:30;;;;;;;189.02;101.70;;;;;;;;;;5055558;28;20021;-49
2022/02/05 06:10:56;;;;;;;151.35;79.50;;;;;;;;;;5055674;28;20030;-48
2022/02/05 06:13:22;;;;;;;128.70;69.82;;;;;;;;;;5055537;28;20095;-48
2022/02/05 06:15:51;;;;;;;108.63;57.47;;;;;;;;;;5055204;28;20032;-50
2022/02/05 06:18:17;;;;;;;90.63;48.45;;;;;;;;;;5055151;28;20025;-50
2022/02/05 06:20:43;;;;;;;90.03;45.88;;;;;;;;;;5055195;28;20028;-49
2022/02/05 06:23:09;;;;;;;76.35;40.75;;;;;;;;;;5055004;28;20021;-49
2022/02/05 06:25:38;;;;;;;83.95;44.05;;;;;;;;;;5055061;28;20100;-50
2022/02/05 06:28:04;;;;;;;84.45;45.15;;;;;;;;;;5054886;28;20067;-48
2022/02/05 06:30:30;;;;;;;91.63;48.72;;;;;;;;;;5054929;28;20025;-47
2022/02/05 06:32:56;;;;;;;95.63;51.17;;;;;;;;;;5054870;28;20124;-48
2022/02/05 06:35:22;;;;;;;87.47;47.90;;;;;;;;;;5054864;28;20369;-49
2022/02/05 06:37:49;;;;;;;98.20;47.28;;;;;;;;;;5054713;28;20071;-49
2022/02/05 06:40:15;;;;;;;79.72;44.20;;;;;;;;;;5054899;28;20541;-49
2022/02/05 06:42:44;;;;;;;73.35;40.65;;;;;;;;;;5054753;28;20496;-49
2022/02/05 06:45:10;;;;;;;71.10;40.03;;;;;;;;;;5054823;28;20082;-49
2022/02/05 06:47:36;;;;;;;69.63;40.00;;;;;;;;;;5053532;28;20021;-49
2022/02/05 06:50:03;;;;;;;73.75;40.45;;;;;;;;;;5054566;28;20020;-49
2022/02/05 06:52:29;;;;;;;86.80;43.65;;;;;;;;;;5054534;28;20035;-49
2022/02/05 06:54:58;;;;;;;83.43;44.65;;;;;;;;;;5054522;28;20032;-48
2022/02/05 06:57:24;;;;;;;78.45;44.92;;;;;;;;;;5052994;28;20048;-49
2022/02/05 06:59:50;;;;;;;79.95;43.47;;;;;;;;;;5054500;28;20477;-49
2022/02/05 07:02:16;;;;;;;77.28;43.58;;;;;;;;;;5054444;28;20082;-49
2022/02/05 07:04:43;;;;;;;77.13;42.47;;;;;;;;;;5054297;28;20473;-49
2022/02/05 07:07:09;;;;;;;74.97;44.33;;;;;;;;;;5054175;28;20108;-49
2022/02/05 07:09:38;;;;;;;79.18;43.10;;;;;;;;;;5054215;28;20017;-48
2022/02/05 07:12:05;;;;;;;83.40;45.75;;;;;;;;;;5053180;28;20036;-48
2022/02/05 07:14:40;;;;;;;92.97;50.20;;;;;;;;;;5054278;28;20027;-50
2022/02/05 07:17:23;;;;;;;102.05;57.53;;;;;;;;;;5054035;28;20115;-49
2022/02/05 07:22:15;;;;;;;142.73;79.13;;;;;;;;;;5054254;28;20056;-50
2022/02/05 07:29:58;;;;;;;103.43;52.17;;;;;;;;;;5053733;28;20504;-49
2022/02/05 07:32:25;;;;;;;70.10;40.97;;;;;;;;;;5053661;28;20033;-50
2022/02/05 07:34:51;;;;;;;57.15;33.83;;;;;;;;;;5053999;28;20428;-49
2022/02/05 07:37:17;;;;;;;56.30;32.92;;;;;;;;;;5053783;28;20068;-50
2022/02/05 07:39:47;;;;;;;55.70;33.13;;;;;;;;;;5053806;28;20493;-49
2022/02/05 07:42:14;;;;;;;51.30;29.70;;;;;;;;;;5053675;28;20024;-50
2022/02/05 07:44:40;;;;;;;52.63;31.70;;;;;;;;;;5053600;28;20025;-49
2022/02/05 07:47:07;;;;;;;51.83;29.40;;;;;;;;;;5053352;28;20036;-50
2022/02/05 07:49:41;;;;;;;52.92;29.65;;;;;;;;;;5053646;28;20036;-50
2022/02/05 07:52:07;;;;;;;49.80;32.42;;;;;;;;;;5053484;28;20024;-48
2022/02/05 07:54:34;;;;;;;59.20;37.33;;;;;;;;;;5053529;28;20025;-50
2022/02/05 07:57:02;;;;;;;64.35;39.47;;;;;;;;;;5053363;28;20545;-49
2022/02/05 07:59:28;;;;;;;64.63;40.05;;;;;;;;;;5051917;28;20497;-49
2022/02/05 08:01:55;;;;;;;74.85;45.35;;;;;;;;;;5053280;28;20033;-49
2022/02/05 08:04:21;;;;;;;78.22;44.58;;;;;;;;;;5053234;28;20100;-48
2022/02/05 08:06:47;;;;;;;89.53;49.65;;;;;;;;;;5053119;28;20082;-47
2022/02/05 08:09:24;;;;;;;96.38;53.92;;;;;;;;;;5053084;28;20037;-50
2022/02/05 08:12:02;;;;;;;97.53;53.63;;;;;;;;;;5053075;28;20021;-47
2022/02/05 08:14:30;;;;;;;94.47;53.13;;;;;;;;;;5052858;28;20028;-48
2022/02/05 08:17:01;;;;;;;89.43;51.45;;;;;;;;;;5052886;28;20032;-48
2022/02/05 08:19:27;;;;;;;61.78;39.65;;;;;;;;;;5053042;28;20458;-49
2022/02/05 08:21:53;;;;;;;60.40;37.67;;;;;;;;;;5052811;28;20048;-49
2022/02/05 08:24:20;;;;;;;54.60;32.17;;;;;;;;;;5052691;28;20021;-48
2022/02/05 08:26:46;;;;;;;54.63;31.77;;;;;;;;;;5052923;28;20039;-49
2022/02/05 08:29:14;;;;;;;63.60;37.17;;;;;;;;;;5052581;28;20054;-49
2022/02/05 08:31:40;;;;;;;67.13;38.03;;;;;;;;;;5052836;28;20478;-49
2022/02/05 08:34:07;;;;;;;69.85;40.05;;;;;;;;;;5052819;28;20051;-49
2022/02/05 08:36:46;;;;;;;73.82;41.13;;;;;;;;;;5052694;28;20547;-48
2022/02/05 08:39:12;;;;;;;82.57;44.72;;;;;;;;;;5051430;28;20055;-49
2022/02/05 08:41:39;;;;;;;100.65;50.90;;;;;;;;;;5052746;28;20025;-49
2022/02/05 08:44:05;;;;;;;95.28;52.60;;;;;;;;;;5052895;28;20025;-49
2022/02/05 08:46:31;;;;;;;89.18;50.28;;;;;;;;;;5052712;28;20469;-48
2022/02/05 08:48:58;;;;;;;129.80;64.05;;;;;;;;;;5052344;28;20104;-47
2022/02/05 08:51:27;;;;;;;89.88;49.15;;;;;;;;;;5052088;28;20025;-48
2022/02/05 08:53:54;;;;;;;92.35;50.55;;;;;;;;;;5052229;28;20452;-47
2022/02/05 08:56:23;;;;;;;120.20;64.10;;;;;;;;;;5051729;28;20036;-48
2022/02/05 08:58:51;;;;;;;167.07;86.70;;;;;;;;;;5052042;28;20037;-47
2022/02/05 09:01:22;;;;;;;96.97;52.13;;;;;;;;;;5052133;28;20051;-49
2022/02/05 09:06:26;;;;;;;80.53;47.42;;;;;;;;;;5051315;28;20136;-48
2022/02/05 09:09:00;;;;;;;103.05;56.10;;;;;;;;;;5051632;28;20017;-49
2022/02/05 09:16:29;;;;;;;88.32;44.42;;;;;;;;;;5049773;28;20036;-48
2022/02/05 09:18:55;;;;;;;85.07;42.47;;;;;;;;;;5051716;28;20027;-48
2022/02/05 09:21:21;;;;;;;80.38;40.15;;;;;;;;;;5051910;28;20049;-49
2022/02/05 09:23:53;;;;;;;80.53;41.95;;;;;;;;;;5052269;28;20032;-49
2022/02/05 09:26:19;;;;;;;79.40;41.38;;;;;;;;;;5052265;28;20405;-49
2022/02/05 09:28:45;;;;;;;75.75;38.10;;;;;;;;;;5052058;28;20052;-49
2022/02/05 09:33:38;;;;;;;68.35;35.50;;;;;;;;;;5052291;28;20036;-49
2022/02/05 09:36:05;;;;;;;95.82;44.78;;;;;;;;;;5055078;28;20028;-48
2022/02/05 09:38:33;;;;;;;121.80;55.67;;;;;;;;;;5055895;28;20132;-48
2022/02/05 09:40:59;;;;;;;64.68;32.60;;;;;;;;;;5055827;28;20032;-48
2022/02/05 09:43:27;;;;;;;82.72;38.67;;;;;;;;;;5055809;28;20031;-48
2022/02/05 09:45:53;;;;;;;106.00;44.97;;;;;;;;;;5055608;28;20499;-47
2022/02/05 09:48:19;;;;;;;106.32;50.00;;;;;;;;;;5055790;28;20025;-48
2022/02/05 09:50:47;;;;;;;76.88;36.08;;;;;;;;;;5055701;28;20025;-48
2022/02/05 09:53:15;;;;;;;61.63;31.02;;;;;;;;;;5055735;28;20393;-48
2022/02/05 09:55:42;;;;;;;67.40;32.47;;;;;;;;;;5055802;28;20483;-48
2022/02/05 09:58:08;;;;;;;61.17;30.58;;;;;;;;;;5055581;28;20112;-48
2022/02/05 10:00:35;;;;;;;105.15;48.13;;;;;;;;;;5055632;28;20426;-48
2022/02/05 10:03:03;;;;;;;95.72;44.55;;;;;;;;;;5055518;28;20033;-49
2022/02/05 10:05:34;;;;;;;70.00;36.30;;;;;;;;;;5055611;28;20021;-49
2022/02/05 10:08:07;;;;;;;72.85;39.22;;;;;;;;;;5055530;28;20149;-49
2022/02/05 10:10:39;;;;;;;79.82;40.17;;;;;;;;;;5055284;28;20484;-50
2022/02/05 10:13:12;;;;;;;69.82;35.65;;;;;;;;;;5055345;28;20021;-47
2022/02/05 10:15:40;;;;;;;64.45;33.55;;;;;;;;;;5055362;28;20029;-48
2022/02/05 10:18:09;;;;;;;71.75;39.00;;;;;;;;;;5055177;28;20025;-49
2022/02/05 10:20:41;;;;;;;52.65;29.92;;;;;;;;;;5055368;28;20025;-55
2022/02/05 10:23:09;;;;;;;48.00;28.63;;;;;;;;;;5055257;28;20390;-50
2022/02/05 10:25:35;;;;;;;49.55;28.50;;;;;;;;;;5055086;28;20075;-50
2022/02/05 10:28:01;;;;;;;40.25;22.52;;;;;;;;;;5054801;28;20386;-49
2022/02/05 10:30:30;;;;;;;75.45;40.80;;;;;;;;;;5055042;28;20048;-49
2022/02/05 10:33:06;;;;;;;63.50;35.25;;;;;;;;;;5054801;28;20033;-50
2022/02/05 10:35:49;;;;;;;78.18;39.67;;;;;;;;;;5054999;28;20092;-49
2022/02/05 10:41:00;;;;;;;100.15;48.13;;;;;;;;;;5054866;28;20385;-49
2022/02/05 10:43:34;;;;;;;50.30;24.27;;;;;;;;;;5054599;28;20048;-50
2022/02/05 10:46:02;;;;;;;92.55;44.92;;;;;;;;;;5054347;28;20021;-50
2022/02/05 10:48:31;;;;;;;98.65;52.80;;;;;;;;;;5054562;28;20484;-49
2022/02/05 10:51:00;;;;;;;57.28;28.58;;;;;;;;;;5054512;28;20115;-49
2022/02/05 10:53:31;;;;;;;57.90;29.55;;;;;;;;;;5054638;28;20025;-49
2022/02/05 10:56:17;;;;;;;48.75;29.17;;;;;;;;;;5054491;28;20413;-49
2022/02/05 11:07:06;;;;;;;52.40;26.43;;;;;;;;;;5054365;28;20090;-49
2022/02/05 11:09:35;;;;;;;34.88;13.15;;;;;;;;;;5053971;28;20031;-54
2022/02/05 11:20:17;;;;;;;33.33;17.17;;;;;;;;;;5054282;28;20037;-49
2022/02/05 11:22:45;;;;;;;20.48;11.93;;;;;;;;;;5054061;28;20028;-48
2022/02/05 11:25:12;;;;;;;34.40;17.40;;;;;;;;;;5053844;28;20385;-49
2022/02/05 11:27:42;;;;;;;21.85;11.27;;;;;;;;;;5053683;28;20177;-49
2022/02/05 11:30:26;;;;;;;22.75;10.40;;;;;;;;;;5053712;28;20041;-48
2022/02/05 11:32:52;;;;;;;40.28;14.65;;;;;;;;;;5053752;28;20025;-49
2022/02/05 11:35:29;;;;;;;15.13;8.02;;;;;;;;;;5053766;28;20029;-49
2022/02/05 11:37:57;;;;;;;18.08;7.97;;;;;;;;;;5053627;28;20037;-49
2022/02/05 11:40:56;;;;;;;17.52;9.07;;;;;;;;;;5053837;28;20046;-49
2022/02/05 11:43:24;;;;;;;20.48;12.15;;;;;;;;;;5031743;28;20175;-48
2022/02/05 11:46:05;;;;;;;20.92;9.85;;;;;;;;;;5031714;28;20037;-49
2022/02/05 11:48:40;;;;;;;16.85;8.48;;;;;;;;;;5031553;28;20134;-48
2022/02/05 11:51:16;;;;;;;17.35;8.10;;;;;;;;;;5031517;28;20513;-48
2022/02/05 11:53:58;;;;;;;25.45;9.75;;;;;;;;;;5031551;28;20041;-49
2022/02/05 11:56:50;;;;;;;12.60;5.75;;;;;;;;;;5031420;28;20105;-49
2022/02/05 11:59:17;;;;;;;15.07;7.10;;;;;;;;;;5030972;28;20049;-49
2022/02/05 12:01:43;;;;;;;17.83;7.35;;;;;;;;;;5031203;28;20036;-49
2022/02/05 12:04:15;;;;;;;15.30;6.88;;;;;;;;;;5031418;28;20025;-50
2022/02/05 12:06:54;;;;;;;42.55;9.77;;;;;;;;;;5031485;28;20426;-49
2022/02/05 12:09:38;;;;;;;26.63;10.43;;;;;;;;;;5031407;28;20060;-49
2022/02/05 12:12:26;;;;;;;20.05;8.30;;;;;;;;;;5031179;28;20501;-50
2022/02/05 12:15:11;;;;;;;17.50;8.48;;;;;;;;;;5031276;28;20056;-50
2022/02/05 12:20:51;;;;;;;18.77;9.35;;;;;;;;;;5053536;28;20525;-49
2022/02/05 12:25:58;;;;;;;9.50;5.30;;;;;;;;;;5052994;28;20017;-50
2022/02/05 12:28:29;;;;;;;19.58;7.97;;;;;;;;;;5052760;28;20037;-49
2022/02/05 12:31:02;;;;;;;20.85;6.35;;;;;;;;;;5052969;28;20047;-49
2022/02/05 12:33:43;;;;;;;17.67;6.97;;;;;;;;;;5052771;28;20091;-49
2022/02/05 12:36:09;;;;;;;;;;;;;;;;;;5053311;28;20092;-49
2022/02/05 12:38:45;;;;;;;30.60;13.30;;;;;;;;;;5052809;28;19963;-49
2022/02/05 12:41:14;;;;;;;30.92;13.23;;;;;;;;;;5052747;28;20053;-50
2022/02/05 12:43:55;;;;;;;37.65;15.65;;;;;;;;;;5053254;28;20017;-48
2022/02/05 12:46:23;;;;;;;40.40;15.27;;;;;;;;;;5052797;28;20025;-50
2022/02/05 12:48:54;;;;;;;42.55;15.90;;;;;;;;;;5052965;28;20021;-49
2022/02/05 12:51:20;;;;;;;25.80;10.73;;;;;;;;;;5052829;28;20021;-48
2022/02/05 12:53:47;;;;;;;20.80;8.70;;;;;;;;;;5052741;28;20553;-49
2022/02/05 12:56:20;;;;;;;24.58;10.18;;;;;;;;;;5052772;28;20061;-49
2022/02/05 12:59:04;;;;;;;33.55;11.20;;;;;;;;;;5052829;28;20415;-49
2022/02/05 13:01:31;;;;;;;33.15;10.50;;;;;;;;;;5052604;28;20037;-49
2022/02/05 13:04:14;;;;;;;13.65;6.30;;;;;;;;;;5052718;28;20052;-49
2022/02/05 13:06:40;;;;;;;19.77;10.70;;;;;;;;;;5052578;28;20111;-49
2022/02/05 13:09:23;;;;;;;15.50;9.38;;;;;;;;;;5054297;28;20021;-50
2022/02/05 13:11:55;;;;;;;16.98;9.10;;;;;;;;;;5056704;28;20028;-49
2022/02/05 13:14:21;;;;;;;11.50;6.22;;;;;;;;;;5056470;28;20056;-50
2022/02/05 13:16:50;;;;;;;7.07;4.65;;;;;;;;;;5056255;28;20051;-49
2022/02/05 13:19:23;;;;;;;10.40;4.57;;;;;;;;;;5056503;28;20441;-49
2022/02/05 13:25:05;;;;;;;9.25;5.20;;;;;;;;;;5056479;28;20114;-49
2022/02/05 13:36:08;;;;;;;5.25;3.50;;;;;;;;;;5056308;28;20040;-49
2022/02/05 13:38:54;;;;;;;6.28;3.78;;;;;;;;;;5056094;28;20485;-49
2022/02/05 13:41:27;;;;;;;14.20;5.00;;;;;;;;;;5056240;28;20033;-49
2022/02/05 13:43:57;;;;;;;11.73;5.25;;;;;;;;;;5056109;28;20021;-49
2022/02/05 13:46:23;;;;;;;11.50;5.15;;;;;;;;;;5055797;28;20440;-50
2022/02/05 13:48:49;;;;;;;15.52;7.57;;;;;;;;;;5055811;28;20017;-49
2022/02/05 13:51:16;;;;;;;8.35;4.63;;;;;;;;;;5056135;28;20385;-49
2022/02/05 13:53:59;;;;;;;11.68;5.45;;;;;;;;;;5055926;28;20028;-49
2022/02/05 13:56:32;;;;;;;12.18;5.35;;;;;;;;;;5055870;28;20024;-49
2022/02/05 13:58:58;;;;;;;11.23;5.18;;;;;;;;;;5056020;28;20036;-49
2022/02/05 14:01:31;;;;;;;13.25;7.25;;;;;;;;;;5055935;28;20056;-49
2022/02/05 14:04:11;;;;;;;19.17;9.23;;;;;;;;;;5055812;28;20106;-48
2022/02/05 14:06:49;;;;;;;19.80;9.45;;;;;;;;;;5055827;28;20044;-49
2022/02/05 14:09:23;;;;;;;20.95;9.38;;;;;;;;;;5055541;28;20052;-49
2022/02/05 14:11:49;;;;;;;23.90;8.10;;;;;;;;;;5055558;28;20024;-49
2022/02/05 14:14:25;;;;;;;19.10;7.93;;;;;;;;;;5055333;28;20021;-48
2022/02/05 14:16:51;;;;;;;15.88;7.22;;;;;;;;;;5055221;28;20090;-48
2022/02/05 14:19:23;;;;;;;16.95;7.25;;;;;;;;;;5053943;28;20037;-49
2022/02/05 14:21:52;;;;;;;19.95;8.15;;;;;;;;;;5054775;28;20043;-49
2022/02/05 14:24:20;;;;;;;22.92;7.85;;;;;;;;;;5053832;28;20032;-49
2022/02/05 14:29:21;;;;;;;20.27;7.88;;;;;;;;;;5055162;28;20052;-49
2022/02/05 14:31:54;;;;;;;18.30;8.32;;;;;;;;;;5055103;28;20063;-50
2022/02/05 14:34:35;;;;;;;18.10;8.90;;;;;;;;;;5055035;28;20078;-48
2022/02/05 14:42:14;;;;;;;14.93;7.63;;;;;;;;;;5055066;28;20031;-49
2022/02/05 14:44:40;;;;;;;12.35;6.07;;;;;;;;;;5054925;28;20104;-48
2022/02/05 14:47:07;;;;;;;11.52;6.15;;;;;;;;;;5054789;28;20040;-49
2022/02/05 14:49:33;;;;;;;10.60;4.30;;;;;;;;;;5054750;28;20419;-48
2022/02/05 14:52:03;;;;;;;5.05;2.55;;;;;;;;;;5054868;28;20397;-49
2022/02/05 14:54:30;;;;;;;8.30;3.83;;;;;;;;;;5054900;28;20379;-49
2022/02/05 14:56:56;;;;;;;10.60;4.10;;;;;;;;;;5054694;28;20033;-49
2022/02/05 14:59:23;;;;;;;10.93;4.60;;;;;;;;;;5054593;28;20075;-48
2022/02/05 15:01:49;;;;;;;8.18;4.95;;;;;;;;;;5054405;28;20021;-48
2022/02/05 15:04:15;;;;;;;11.70;4.35;;;;;;;;;;5054587;28;20439;-48
2022/02/05 15:06:44;;;;;;;10.65;3.05;;;;;;;;;;5054643;28;20052;-49
2022/02/05 15:09:10;;;;;;;6.95;3.25;;;;;;;;;;5054507;28;20020;-49
2022/02/05 15:11:36;;;;;;;9.00;4.28;;;;;;;;;;5054508;28;20025;-49
2022/02/05 15:14:03;;;;;;;11.07;4.38;;;;;;;;;;5054226;28;20068;-49
2022/02/05 15:16:31;;;;;;;10.75;4.85;;;;;;;;;;5054251;28;20458;-48
2022/02/05 15:18:57;;;;;;;8.98;4.82;;;;;;;;;;5053965;28;20040;-49
2022/02/05 15:21:27;;;;;;;10.57;5.07;;;;;;;;;;5054191;28;20031;-48
2022/02/05 15:23:54;;;;;;;18.45;5.57;;;;;;;;;;5053996;28;20063;-50
2022/02/05 15:26:20;;;;;;;16.95;9.13;;;;;;;;;;5054034;28;20017;-49
2022/02/05 15:28:52;;;;;;;21.33;9.27;;;;;;;;;;5053132;28;20444;-48
2022/02/05 15:31:18;;;;;;;29.05;11.55;;;;;;;;;;5053847;28;20154;-50
2022/02/05 15:33:47;;;;;;;29.67;13.68;;;;;;;;;;5052292;28;20013;-48
2022/02/05 15:36:18;;;;;;;28.73;12.18;;;;;;;;;;5053699;28;20028;-49
2022/02/05 15:38:52;;;;;;;31.08;15.90;;;;;;;;;;5053159;28;20029;-49
2022/02/05 15:44:03;;;;;;;52.53;20.23;;;;;;;;;;5047347;28;20035;-48
2022/02/05 15:46:29;;;;;;;39.08;21.42;;;;;;;;;;5023618;28;20069;-48
2022/02/05 15:48:55;;;;;;;45.13;21.83;;;;;;;;;;5022090;28;20473;-48
2022/02/05 15:51:25;;;;;;;40.08;19.10;;;;;;;;;;5021057;28;20104;-48
2022/02/05 15:53:57;;;;;;;39.92;19.27;;;;;;;;;;5021904;28;20028;-47
2022/02/05 15:59:02;;;;;;;34.65;19.42;;;;;;;;;;5021881;28;20375;-49
2022/02/05 16:01:28;;;;;;;36.20;16.63;;;;;;;;;;5021190;28;20237;-48
2022/02/05 16:03:54;;;;;;;35.13;19.45;;;;;;;;;;5021070;28;20052;-48
2022/02/05 16:06:20;;;;;;;39.30;19.10;;;;;;;;;;5020708;28;20037;-49
2022/02/05 16:08:46;;;;;;;33.20;16.92;;;;;;;;;;5021104;28;20056;-48
2022/02/05 16:11:14;;;;;;;42.05;19.20;;;;;;;;;;5020910;28;20125;-48
2022/02/05 16:13:40;;;;;;;57.15;26.42;;;;;;;;;;5022009;28;20028;-48
2022/02/05 16:16:06;;;;;;;64.68;26.50;;;;;;;;;;5020686;28;20467;-48
2022/02/05 16:18:33;;;;;;;52.33;23.92;;;;;;;;;;5021664;28;20431;-54
2022/02/05 16:20:59;;;;;;;50.10;23.63;;;;;;;;;;5020634;28;20397;-48
2022/02/05 16:23:25;;;;;;;101.93;45.15;;;;;;;;;;5020864;28;20045;-48
2022/02/05 16:25:51;;;;;;;117.90;52.38;;;;;;;;;;5020574;28;20021;-49
2022/02/05 16:28:17;;;;;;;122.43;51.47;;;;;;;;;;5020285;28;20543;-48
2022/02/05 16:30:45;;;;;;;115.82;49.53;;;;;;;;;;5020543;28;20079;-49
2022/02/05 16:33:20;;;;;;;97.88;45.13;;;;;;;;;;5022131;28;20148;-48
2022/02/05 16:35:49;;;;;;;90.75;41.25;;;;;;;;;;5020377;28;20026;-48
2022/02/05 16:38:28;;;;;;;86.68;40.35;;;;;;;;;;5063016;28;20028;-51
2022/02/05 16:40:54;;;;;;;69.28;35.28;;;;;;;;;;5073134;28;20017;-50
2022/02/05 16:43:21;;;;;;;62.30;33.83;;;;;;;;;;5074156;28;20387;-49
2022/02/05 16:45:47;;;;;;;54.95;29.75;;;;;;;;;;5079797;28;20044;-49
2022/02/05 16:48:13;;;;;;;85.90;38.03;;;;;;;;;;5079602;28;20036;-48
2022/02/05 16:50:40;;;;;;;105.15;38.75;;;;;;;;;;5079625;28;20020;-48
2022/02/05 16:53:07;;;;;;;78.30;33.53;;;;;;;;;;5079434;28;20027;-49
2022/02/05 16:55:33;;;;;;;64.53;31.50;;;;;;;;;;5079400;28;20115;-49
2022/02/05 16:57:59;;;;;;;47.53;25.30;;;;;;;;;;5079290;28;20484;-49
2022/02/05 17:00:26;;;;;;;46.92;22.77;;;;;;;;;;5079492;28;20437;-50
2022/02/05 17:02:54;;;;;;;47.22;22.55;;;;;;;;;;5079505;28;20020;-50
2022/02/05 17:05:23;;;;;;;51.83;23.17;;;;;;;;;;5079440;28;20017;-49
2022/02/05 17:07:57;;;;;;;47.88;20.77;;;;;;;;;;5079302;28;20037;-49
2022/02/05 17:10:23;;;;;;;43.20;21.25;;;;;;;;;;5079591;28;20025;-50
2022/02/05 17:12:49;;;;;;;50.00;25.35;;;;;;;;;;5079197;28;20021;-50
2022/02/05 17:15:17;;;;;;;53.63;23.30;;;;;;;;;;5077504;28;20455;-49
2022/02/05 17:17:46;;;;;;;58.88;26.58;;;;;;;;;;5078839;28;20523;-49
2022/02/05 17:20:18;;;;;;;49.00;25.17;;;;;;;;;;5079153;28;20024;-49
2022/02/05 17:22:44;;;;;;;42.13;22.60;;;;;;;;;;5078988;28;20518;-50
2022/02/05 17:25:10;;;;;;;42.78;22.35;;;;;;;;;;5079289;28;20024;-49
2022/02/05 17:27:38;;;;;;;47.70;23.15;;;;;;;;;;5079586;28;20352;-49
2022/02/05 17:30:04;;;;;;;56.35;25.05;;;;;;;;;;5078838;28;20056;-49
2022/02/05 17:32:30;;;;;;;66.97;32.45;;;;;;;;;;5078861;28;20078;-49
2022/02/05 17:35:00;;;;;;;54.42;27.65;;;;;;;;;;5079121;28;20099;-49
2022/02/05 17:37:27;;;;;;;59.90;28.00;;;;;;;;;;5079210;28;20017;-51
2022/02/05 17:39:53;;;;;;;65.57;30.02;;;;;;;;;;5079172;28;20536;-49
2022/02/05 17:42:19;;;;;;;73.25;33.80;;;;;;;;;;5079111;28;20027;-50
2022/02/05 17:44:45;;;;;;;69.97;35.00;;;;;;;;;;5076257;28;20031;-50
2022/02/05 17:47:11;;;;;;;62.88;30.52;;;;;;;;;;5058434;28;20013;-50
2022/02/05 17:49:38;;;;;;;53.15;27.40;;;;;;;;;;5058446;28;20108;-50